Terminal Aerodrome Forecast
Issued by NWS

Home | Current Version | Previous Version | Graphics & Text | Print | Product List | Glossary On
Versions: 1 2 3 4 5 6 7 8 9 10 11 12 13 14 15 16 17 18 19 20 21 22 23
000
FTUS43 KABR 020814 AAA
TAFPIR
TAF AMD
KPIR 020814Z 0208/0306 VRB03KT 1SM BR SKC
      TEMPO 0208/0212 1/4SM FG VV004
     FM021300 13008KT P6SM SCT250=

USA.gov is the U.S. government's official web portal to all federal, state and local government web resources and services.